Hub


Voltar

 INFORMAÇÕES METEOROLÓGICAS

METAR FOR LPPR


ADDS - METARS form results

(2321 UTC 17 February 2019)
Data provider http://aviationweather.gov/metar/data/
 
METAR text: LPPR 172300Z 31003KT 8000 -RA FEW020 BKN035 11/10 Q1017
Conditions at: LPPR (PORTO/PEDRAS RUB, PT) observed 2300 UTC 17 February 2019
Temperature: 11.0°C (52°F)
Dewpoint: 10.0°C (50°F) [RH = 94%]
Pressure (altimeter): 30.03 inches Hg (1017.0 mb)
Winds: from the NW (310 degrees) at 3 MPH (3 knots; 1.5 m/s)
Visibility: 5 miles ( 8 km)
Ceiling: 3500 feet AGL
Clouds: few clouds at 2000 feet AGL
broken clouds at 3500 feet AGL
Weather: -RA  (light rain)

METAR text: LPPR 172230Z 36005KT 320V040 9000 -RA FEW015 SCT040 11/10 Q1017
Conditions at: LPPR (PORTO/PEDRAS RUB, PT) observed 2230 UTC 17 February 2019
Temperature: 11.0°C (52°F)
Dewpoint: 10.0°C (50°F) [RH = 94%]
Pressure (altimeter): 30.03 inches Hg (1017.0 mb)
Winds: from the N (360 degrees) at 6 MPH (5 knots; 2.6 m/s)
Visibility: 6 miles ( 9 km)
Ceiling: at least 12,000 feet AGL
Clouds: few clouds at 1500 feet AGL
scattered clouds at 4000 feet AGL
Weather: -RA  (light rain)

Forecast for: LPPR (PORTO/PEDRAS RUB, PT)
Text: TAF LPPR 172300Z 1800/1824 35010KT 9999 SCT015 SCT030
Forecast period: 0000 UTC 18 February 2019 to 0000 UTC 19 February 2019
Forecast type: FROM: standard forecast or significant change
Winds: from the N (350 degrees) at 12 MPH (10 knots; 5.1 m/s)
Visibility: 6 or more miles 10+ km)
Ceiling: at least 12,000 feet AGL
Clouds: scattered clouds at 1500 feet AGL
scattered clouds at 3000 feet AGL
Weather: no significant weather forecast for this period
Text: TEMPO 1800/1806 4000 RA SCT002 BKN005
Forecast period: 0000 to 0600 UTC 18 February 2019
Forecast type: TEMPORARY: The following changes expected for less than half the time period
Visibility: 2.49 miles (4.01 km)
Ceiling: 500 feet AGL
Clouds: scattered clouds at 200 feet AGL
broken clouds at 500 feet AGL
Weather: RA  (moderate rain)


 MAPA DO AEROPORTO


 INFORMAÇÕES DA PISTA

Pista 17 Tamanho da pista 11417 ft Largura da pista 148 ft
Elevação da pista 151 ft Ranhura da pista 984 ft Proa da pista 169
Pista 35 Tamanho da pista 11417 ft Largura da pista 148 ft
Elevação da pista 226 ft Ranhura da pista 492 ft Proa da pista 349

 FREQUÊNCIAS DO AEROPORTO

Tipo APP Nome APP Frequência 121.1 MHZ
Tipo ATIS Nome ATIS Frequência 124.3 MHZ
Tipo TWR Nome TWR Frequência 118 MHZ

 AUXÍLIOS DE NAVEGAÇÃO PRÓXIMOS AO AEROPORTO

Tipo NDB Nome Porto Frequência 367 KHZ
Tipo NDB Nome Porto Frequência 327 KHZ
Tipo VOR-DME Nome Porto Frequência 114100 KHZ